createdAt,value
2018-07-19T00:00:27.960Z,23.48
2018-07-19T00:02:55.570Z,23.47
2018-07-19T00:05:23.332Z,23.47
2018-07-19T00:07:50.112Z,23.47
2018-07-19T00:10:18.632Z,23.45
2018-07-19T00:12:45.267Z,23.44
2018-07-19T00:15:12.921Z,23.44
2018-07-19T00:17:41.854Z,23.44
2018-07-19T00:20:10.017Z,23.43
2018-07-19T00:22:36.671Z,23.43
2018-07-19T00:25:03.453Z,23.44
2018-07-19T00:27:30.129Z,23.47
2018-07-19T00:29:56.775Z,23.46
2018-07-19T00:32:24.430Z,23.43
2018-07-19T00:34:52.088Z,23.40
2018-07-19T00:37:18.849Z,23.41
2018-07-19T00:39:45.517Z,23.40
2018-07-19T00:42:13.135Z,23.43
2018-07-19T00:44:39.878Z,23.42
2018-07-19T00:47:06.541Z,23.39
2018-07-19T00:49:34.068Z,23.41
2018-07-19T00:52:00.761Z,23.42
2018-07-19T00:54:27.430Z,23.42
2018-07-19T00:56:54.921Z,23.41
2018-07-19T00:59:21.561Z,23.42
2018-07-19T01:01:49.148Z,23.41
2018-07-19T01:04:15.851Z,23.40
2018-07-19T01:06:42.500Z,23.41
2018-07-19T01:09:10.997Z,23.40
2018-07-19T01:11:37.789Z,23.36
2018-07-19T01:14:04.560Z,23.38
2018-07-19T01:16:31.201Z,23.36
2018-07-19T01:18:57.901Z,23.36
2018-07-19T01:21:25.488Z,23.38
2018-07-19T01:23:52.164Z,23.38
2018-07-19T01:26:20.225Z,23.36
2018-07-19T01:28:47.665Z,23.37
2018-07-19T01:31:14.346Z,23.36
2018-07-19T01:33:42.033Z,23.35
2018-07-19T01:36:09.760Z,23.34
2018-07-19T01:38:36.528Z,23.37
2018-07-19T01:41:09.748Z,23.35
2018-07-19T01:43:36.385Z,23.35
2018-07-19T01:46:03.250Z,23.36
2018-07-19T01:48:29.909Z,23.36
2018-07-19T01:50:56.544Z,23.35
2018-07-19T01:53:23.221Z,23.33
2018-07-19T01:55:49.873Z,23.34
2018-07-19T01:58:17.657Z,23.30
2018-07-19T02:00:44.330Z,23.32
2018-07-19T02:03:10.964Z,23.32
2018-07-19T02:05:37.605Z,23.32
2018-07-19T02:08:04.264Z,23.30
2018-07-19T02:10:30.921Z,23.33
2018-07-19T02:12:57.559Z,23.30
2018-07-19T02:15:25.211Z,23.32
2018-07-19T02:17:51.857Z,23.31
2018-07-19T02:20:18.533Z,23.31
2018-07-19T02:22:45.201Z,23.29
2018-07-19T02:25:11.846Z,23.30
2018-07-19T02:27:38.560Z,23.33
2018-07-19T02:30:06.078Z,23.33
2018-07-19T02:32:32.723Z,23.27
2018-07-19T02:34:59.380Z,23.32
2018-07-19T02:37:26.061Z,23.31
2018-07-19T02:39:52.713Z,23.30
2018-07-19T02:42:19.557Z,23.28
2018-07-19T02:44:46.212Z,23.27
2018-07-19T02:47:13.700Z,23.27
2018-07-19T02:49:40.341Z,23.27
2018-07-19T02:52:06.992Z,23.24
2018-07-19T02:54:34.453Z,23.25
2018-07-19T02:57:01.180Z,23.24
2018-07-19T02:59:27.831Z,23.24
2018-07-19T03:01:54.505Z,23.23
2018-07-19T03:04:21.144Z,23.22
2018-07-19T03:06:49.084Z,23.23
2018-07-19T03:09:15.717Z,23.21
2018-07-19T03:11:43.281Z,23.23
2018-07-19T03:14:09.964Z,23.22
2018-07-19T03:16:36.616Z,23.21
2018-07-19T03:19:03.295Z,23.23
2018-07-19T03:21:30.912Z,23.24
2018-07-19T03:23:58.433Z,23.24
2018-07-19T03:26:25.117Z,23.21
2018-07-19T03:28:51.763Z,23.22
2018-07-19T03:31:19.518Z,23.22
2018-07-19T03:33:48.532Z,23.22
2018-07-19T03:36:17.889Z,23.20
2018-07-19T03:38:45.388Z,23.18
2018-07-19T03:41:12.037Z,23.19
2018-07-19T03:43:40.147Z,23.19
2018-07-19T03:46:06.848Z,23.21
2018-07-19T03:48:33.502Z,23.22
2018-07-19T03:51:00.188Z,23.22
2018-07-19T03:53:26.836Z,23.20
2018-07-19T03:55:54.556Z,23.21
2018-07-19T03:58:21.237Z,23.25
2018-07-19T04:00:50.169Z,23.23
2018-07-19T04:03:17.472Z,23.21
2018-07-19T04:05:44.152Z,23.20
2018-07-19T04:08:10.797Z,23.20
2018-07-19T04:10:37.448Z,23.18
2018-07-19T04:13:04.124Z,23.18
2018-07-19T04:15:30.777Z,23.21
2018-07-19T04:17:58.165Z,23.19
2018-07-19T04:20:25.948Z,23.24
2018-07-19T04:22:53.240Z,23.23
2018-07-19T04:25:20.054Z,23.17
2018-07-19T04:27:47.840Z,23.20
2018-07-19T04:30:14.472Z,23.18
2018-07-19T04:32:41.545Z,23.17
2018-07-19T04:35:08.198Z,23.18
2018-07-19T04:37:35.629Z,23.19
2018-07-19T04:40:02.684Z,23.20
2018-07-19T04:42:29.368Z,23.16
2018-07-19T04:44:56.013Z,23.22
2018-07-19T04:47:22.652Z,23.20
2018-07-19T04:49:49.329Z,23.19
2018-07-19T04:52:15.978Z,23.20
2018-07-19T04:54:42.853Z,23.17
2018-07-19T04:57:10.161Z,23.17
2018-07-19T04:59:36.842Z,23.18
2018-07-19T05:02:03.553Z,23.18
2018-07-19T05:04:31.078Z,23.20
2018-07-19T05:06:58.496Z,23.21
2018-07-19T05:09:25.168Z,23.21
2018-07-19T05:11:51.820Z,23.18
2018-07-19T05:14:18.460Z,23.19
2018-07-19T05:16:45.121Z,23.18
2018-07-19T05:19:11.792Z,23.19
2018-07-19T05:21:39.676Z,23.21
2018-07-19T05:24:06.336Z,23.17
2018-07-19T05:26:33.013Z,23.21
2018-07-19T05:28:59.697Z,23.18
2018-07-19T05:31:26.364Z,23.20
2018-07-19T05:33:53.193Z,23.22
2018-07-19T05:36:19.845Z,23.20
2018-07-19T05:38:47.752Z,23.22
2018-07-19T05:41:14.427Z,23.18
2018-07-19T05:43:41.084Z,23.19
2018-07-19T05:46:07.741Z,23.17
2018-07-19T05:48:34.409Z,23.20
2018-07-19T05:51:01.085Z,23.22
2018-07-19T05:53:28.584Z,23.27
2018-07-19T05:55:55.557Z,23.31
2018-07-19T05:58:22.244Z,23.36
2018-07-19T06:00:49.355Z,23.40
2018-07-19T06:03:16.044Z,23.28
2018-07-19T06:05:42.768Z,23.29
2018-07-19T06:08:10.520Z,23.28
2018-07-19T06:10:37.186Z,23.25
2018-07-19T06:13:03.880Z,23.29
2018-07-19T06:15:31.604Z,23.25
2018-07-19T06:17:59.202Z,23.25
2018-07-19T06:20:26.817Z,23.23
2018-07-19T06:22:53.487Z,23.22
2018-07-19T06:25:20.149Z,23.22
2018-07-19T06:27:47.576Z,23.22
2018-07-19T06:30:14.238Z,23.27
2018-07-19T06:32:41.844Z,23.38
2018-07-19T06:35:09.579Z,23.48
2018-07-19T06:37:36.292Z,23.57
2018-07-19T06:40:02.969Z,23.67
2018-07-19T06:42:30.599Z,23.71
2018-07-19T06:44:58.354Z,23.74
2018-07-19T06:47:25.024Z,23.72
2018-07-19T06:49:51.678Z,23.76
2018-07-19T06:52:18.617Z,23.81
2018-07-19T06:54:45.276Z,23.76
2018-07-19T06:57:11.944Z,23.81
2018-07-19T06:59:39.480Z,23.78
2018-07-19T07:02:06.163Z,23.76
2018-07-19T07:04:32.825Z,23.76
2018-07-19T07:07:00.459Z,23.80
2018-07-19T07:09:27.956Z,23.77
2018-07-19T07:11:54.636Z,23.74
2018-07-19T07:14:21.304Z,23.75
2018-07-19T07:16:49.452Z,23.77
2018-07-19T07:19:16.205Z,23.75
2018-07-19T07:21:43.396Z,23.73
2018-07-19T07:24:10.947Z,23.75
2018-07-19T07:26:37.608Z,23.72
2018-07-19T07:29:04.267Z,23.73
2018-07-19T07:31:30.932Z,23.75
2018-07-19T07:33:57.729Z,23.73
2018-07-19T07:36:25.320Z,23.64
2018-07-19T07:38:52.897Z,23.64
2018-07-19T07:41:19.596Z,23.65
2018-07-19T07:43:46.286Z,23.62
2018-07-19T07:46:13.980Z,23.62
2018-07-19T07:48:41.500Z,23.60
2018-07-19T07:51:09.161Z,23.64
2018-07-19T07:53:35.878Z,23.65
2018-07-19T07:56:02.613Z,23.62
2018-07-19T07:58:29.324Z,23.71
2018-07-19T08:00:56.024Z,23.81
2018-07-19T08:03:22.681Z,23.76
2018-07-19T08:05:49.493Z,23.70
2018-07-19T08:08:17.612Z,23.70
2018-07-19T08:10:45.272Z,23.69
2018-07-19T08:13:11.949Z,23.61
2018-07-19T08:15:40.132Z,23.58
2018-07-19T08:18:06.793Z,23.67
2018-07-19T08:20:33.468Z,23.62
2018-07-19T08:23:00.168Z,23.62
2018-07-19T08:25:26.906Z,23.61
2018-07-19T08:27:53.856Z,23.70
2018-07-19T08:30:20.710Z,23.63
2018-07-19T08:32:48.035Z,23.58
2018-07-19T08:35:14.716Z,23.61
2018-07-19T08:37:41.430Z,23.61
2018-07-19T08:40:08.260Z,23.59
2018-07-19T08:42:37.708Z,23.55
2018-07-19T08:45:04.849Z,23.60
2018-07-19T08:47:31.501Z,23.57
2018-07-19T08:49:58.180Z,23.58
2018-07-19T08:52:25.848Z,23.52
2018-07-19T08:54:52.548Z,23.51
2018-07-19T08:57:20.230Z,23.46
2018-07-19T08:59:48.208Z,23.52
2018-07-19T09:02:15.723Z,23.52
2018-07-19T09:04:42.408Z,23.54
2018-07-19T09:07:10.193Z,23.52
2018-07-19T09:09:36.868Z,23.52
2018-07-19T09:12:04.490Z,23.52
2018-07-19T09:14:32.019Z,23.52
2018-07-19T09:16:59.589Z,23.55
2018-07-19T09:19:27.160Z,23.53
2018-07-19T09:21:54.700Z,23.55
2018-07-19T09:24:21.378Z,23.55
2018-07-19T09:26:48.945Z,23.55
2018-07-19T09:29:15.658Z,23.55
2018-07-19T09:31:42.416Z,23.58
2018-07-19T09:34:10.064Z,23.54
2018-07-19T09:36:37.850Z,23.51
2018-07-19T09:39:06.596Z,23.54
2018-07-19T09:41:33.481Z,23.54
2018-07-19T09:44:00.365Z,23.53
2018-07-19T09:46:27.273Z,23.54
2018-07-19T09:48:54.174Z,23.48
2018-07-19T09:51:21.051Z,23.49
2018-07-19T09:53:49.041Z,23.55
2018-07-19T09:56:18.479Z,23.51
2018-07-19T09:58:47.590Z,23.52
2018-07-19T10:01:20.230Z,23.47
2018-07-19T10:03:50.575Z,23.47
2018-07-19T10:06:19.548Z,23.50
2018-07-19T10:08:48.112Z,23.50
2018-07-19T10:11:16.142Z,23.48
2018-07-19T10:13:43.135Z,23.50
2018-07-19T10:16:11.331Z,23.48
2018-07-19T10:18:38.373Z,23.47
2018-07-19T10:21:05.283Z,23.48
2018-07-19T10:23:32.195Z,23.46
2018-07-19T10:25:59.080Z,23.45
2018-07-19T10:28:27.040Z,23.48
2018-07-19T10:30:53.953Z,23.50
2018-07-19T10:33:21.770Z,23.48
2018-07-19T10:35:48.925Z,23.49
2018-07-19T10:38:17.938Z,23.50
2018-07-19T10:40:44.873Z,23.46
2018-07-19T10:43:12.694Z,23.49
2018-07-19T10:45:40.637Z,23.45
2018-07-19T10:48:09.951Z,23.46
2018-07-19T10:50:37.908Z,23.46
2018-07-19T10:53:05.456Z,23.53
2018-07-19T10:55:32.388Z,23.64
2018-07-19T10:57:59.275Z,23.70
2018-07-19T11:00:26.146Z,23.81
2018-07-19T11:02:53.223Z,23.89
2018-07-19T11:05:20.249Z,23.94
2018-07-19T11:07:48.569Z,23.97
2018-07-19T11:10:15.425Z,23.98
2018-07-19T11:12:43.301Z,24.04
2018-07-19T11:15:11.989Z,24.05
2018-07-19T11:17:38.933Z,24.01
2018-07-19T11:20:05.970Z,24.02
2018-07-19T11:22:33.665Z,24.05
2018-07-19T11:25:04.140Z,24.00
2018-07-19T11:27:30.980Z,23.99
2018-07-19T11:29:57.785Z,23.93
2018-07-19T11:32:25.573Z,23.94
2018-07-19T11:34:52.393Z,23.94
2018-07-19T11:37:20.189Z,23.95
2018-07-19T11:39:48.894Z,23.89
2018-07-19T11:42:17.924Z,23.94
2018-07-19T11:44:48.461Z,23.90
2018-07-19T11:47:15.467Z,23.90
2018-07-19T11:49:43.207Z,23.88
2018-07-19T11:52:10.149Z,23.85
2018-07-19T11:54:37.045Z,23.84
2018-07-19T11:57:04.516Z,23.85
2018-07-19T11:59:31.410Z,23.82
2018-07-19T12:01:58.335Z,23.87
2018-07-19T12:04:25.236Z,23.85
2018-07-19T12:06:52.121Z,23.82
2018-07-19T12:09:19.008Z,23.86
2018-07-19T12:11:45.900Z,23.83
2018-07-19T12:14:12.800Z,23.77
2018-07-19T12:16:40.632Z,23.76
2018-07-19T12:19:07.605Z,23.76
2018-07-19T12:21:34.509Z,23.78
2018-07-19T12:24:01.613Z,23.74
2018-07-19T12:26:28.616Z,23.74
2018-07-19T12:28:55.511Z,23.74
2018-07-19T12:31:22.494Z,23.75
2018-07-19T12:33:49.422Z,23.74
2018-07-19T12:36:19.675Z,23.88
2018-07-19T12:38:47.740Z,23.79
2018-07-19T12:41:14.628Z,23.71
2018-07-19T12:43:41.514Z,23.74
2018-07-19T12:46:08.419Z,23.81
2018-07-19T12:48:35.299Z,23.77
2018-07-19T12:51:02.269Z,23.72
2018-07-19T12:53:29.168Z,23.76
2018-07-19T12:55:56.062Z,23.81
2018-07-19T12:58:22.978Z,23.75
2018-07-19T13:00:49.857Z,23.79
2018-07-19T13:03:17.316Z,23.74
2018-07-19T13:05:45.192Z,23.69
2018-07-19T13:08:13.174Z,23.67
2018-07-19T13:10:41.133Z,23.74
2018-07-19T13:13:09.884Z,23.73
2018-07-19T13:15:38.185Z,23.69
2018-07-19T13:18:05.113Z,23.71
2018-07-19T13:20:32.936Z,23.76
2018-07-19T13:23:00.636Z,23.76
2018-07-19T13:25:27.524Z,23.77
2018-07-19T13:27:55.373Z,23.77
2018-07-19T13:30:22.254Z,23.77
2018-07-19T13:32:49.965Z,23.73
2018-07-19T13:35:18.171Z,23.72
2018-07-19T13:37:45.929Z,23.76
2018-07-19T13:40:13.801Z,23.75
2018-07-19T13:42:40.707Z,23.71
2018-07-19T13:45:07.607Z,23.75
2018-07-19T13:47:34.500Z,23.75
2018-07-19T13:50:01.385Z,23.70
2018-07-19T13:52:33.929Z,23.74
2018-07-19T13:55:01.615Z,23.72
2018-07-19T13:57:28.494Z,23.67
2018-07-19T13:59:55.415Z,23.71
2018-07-19T14:02:22.304Z,23.70
2018-07-19T14:04:49.209Z,23.71
2018-07-19T14:07:16.113Z,23.73
2018-07-19T14:09:43.021Z,23.68
2018-07-19T14:12:11.018Z,23.69
2018-07-19T14:14:37.925Z,23.68
2018-07-19T14:17:04.812Z,23.69
2018-07-19T14:19:32.716Z,23.68
2018-07-19T14:21:59.612Z,23.67
2018-07-19T14:24:27.369Z,23.69
2018-07-19T14:26:55.248Z,23.68
2018-07-19T14:29:23.024Z,23.68
2018-07-19T14:31:50.829Z,23.65
2018-07-19T14:34:18.677Z,23.67
2018-07-19T14:36:45.557Z,23.68
2018-07-19T14:39:13.280Z,23.67
2018-07-19T14:41:41.224Z,23.69
2018-07-19T14:44:08.437Z,23.66
2018-07-19T14:46:35.454Z,23.65
2018-07-19T14:49:03.373Z,23.62
2018-07-19T14:51:31.213Z,23.65
2018-07-19T14:53:58.132Z,23.63
2018-07-19T14:56:25.889Z,23.66
2018-07-19T14:58:53.612Z,23.63
2018-07-19T15:01:20.692Z,23.67
2018-07-19T15:03:48.264Z,23.66
2018-07-19T15:06:19.708Z,23.59
2018-07-19T15:08:48.220Z,23.60
2018-07-19T15:11:15.940Z,23.60
2018-07-19T15:13:43.900Z,23.60
2018-07-19T15:16:11.748Z,23.59
2018-07-19T15:18:38.616Z,23.59
2018-07-19T15:21:07.181Z,23.59
2018-07-19T15:23:35.136Z,23.64
2018-07-19T15:26:02.036Z,23.57
2018-07-19T15:28:29.755Z,23.62
2018-07-19T15:30:57.432Z,23.61
2018-07-19T15:33:25.273Z,23.61
2018-07-19T15:35:52.164Z,23.63
2018-07-19T15:38:19.049Z,23.63
2018-07-19T15:40:47.745Z,23.64
2018-07-19T15:43:14.666Z,23.54
2018-07-19T15:45:41.581Z,23.61
2018-07-19T15:48:09.345Z,23.62
2018-07-19T15:50:40.873Z,23.64
2018-07-19T15:53:07.777Z,23.58
2018-07-19T15:55:34.761Z,23.61
2018-07-19T15:58:01.661Z,23.59
2018-07-19T16:00:28.689Z,23.59
2018-07-19T16:02:55.689Z,23.60
2018-07-19T16:05:23.657Z,23.61
2018-07-19T16:07:50.536Z,23.60
2018-07-19T16:10:18.132Z,23.62
2018-07-19T16:12:45.945Z,23.63
2018-07-19T16:15:12.840Z,23.61
2018-07-19T16:17:41.961Z,23.61
2018-07-19T16:20:10.753Z,23.60
2018-07-19T16:22:38.592Z,23.59
2018-07-19T16:25:05.532Z,23.60
2018-07-19T16:27:32.405Z,23.63
2018-07-19T16:30:00.123Z,23.61
2018-07-19T16:32:27.177Z,23.60
2018-07-19T16:34:54.889Z,23.59
2018-07-19T16:37:22.897Z,23.60
2018-07-19T16:39:50.804Z,23.59
2018-07-19T16:42:18.700Z,23.60
2018-07-19T16:44:45.572Z,23.60
2018-07-19T16:47:13.317Z,23.59
2018-07-19T16:49:41.201Z,23.59
2018-07-19T16:52:09.928Z,23.59
2018-07-19T16:54:37.696Z,23.59
2018-07-19T16:57:05.758Z,23.58
2018-07-19T16:59:33.484Z,23.58
2018-07-19T17:02:01.357Z,23.59
2018-07-19T17:04:28.953Z,23.59
2018-07-19T17:06:56.412Z,23.58
2018-07-19T17:09:24.180Z,23.56
2018-07-19T17:11:50.852Z,23.57
2018-07-19T17:14:18.735Z,23.55
2018-07-19T17:16:45.405Z,23.59
2018-07-19T17:19:12.072Z,23.58
2018-07-19T17:21:39.752Z,23.58
2018-07-19T17:24:06.409Z,23.57
2018-07-19T17:26:33.153Z,23.58
2018-07-19T17:29:00.133Z,23.58
2018-07-19T17:31:26.800Z,23.59
2018-07-19T17:33:53.436Z,23.61
2018-07-19T17:36:20.117Z,23.59
2018-07-19T17:38:47.847Z,23.59
2018-07-19T17:41:15.489Z,23.60
2018-07-19T17:43:43.012Z,23.58
2018-07-19T17:46:10.460Z,23.56
2018-07-19T17:48:37.160Z,23.57
2018-07-19T17:51:04.017Z,23.57
2018-07-19T17:53:30.701Z,23.58
2018-07-19T17:55:57.590Z,23.58
2018-07-19T17:58:24.262Z,23.58
2018-07-19T18:00:51.969Z,23.55
2018-07-19T18:03:18.619Z,23.56
2018-07-19T18:05:45.349Z,23.57
2018-07-19T18:08:12.157Z,23.56
2018-07-19T18:10:39.447Z,23.57
2018-07-19T18:13:06.098Z,23.60
2018-07-19T18:15:32.744Z,23.62
2018-07-19T18:17:59.529Z,23.57
2018-07-19T18:20:26.236Z,23.58
2018-07-19T18:22:52.956Z,23.57
2018-07-19T18:25:19.593Z,23.57
2018-07-19T18:27:48.452Z,23.55
2018-07-19T18:30:15.098Z,23.54
2018-07-19T18:32:41.770Z,23.54
2018-07-19T18:35:08.617Z,23.52
2018-07-19T18:37:35.309Z,23.52
2018-07-19T18:40:01.997Z,23.55
2018-07-19T18:42:28.675Z,23.55
2018-07-19T18:44:55.497Z,23.53
2018-07-19T18:47:23.142Z,23.54
2018-07-19T18:49:49.800Z,23.54
2018-07-19T18:52:16.451Z,23.52
2018-07-19T18:54:58.741Z,23.51
2018-07-19T18:57:25.446Z,23.49
2018-07-19T18:59:52.250Z,23.54
2018-07-19T19:02:18.937Z,23.57
2018-07-19T19:04:47.186Z,23.52
2018-07-19T19:07:13.879Z,23.50
2018-07-19T19:09:40.601Z,23.49
2018-07-19T19:12:07.408Z,23.50
2018-07-19T19:14:34.205Z,23.54
2018-07-19T19:17:01.849Z,23.49
2018-07-19T19:19:29.741Z,23.55
2018-07-19T19:21:56.479Z,23.50
2018-07-19T19:24:23.153Z,23.52
2018-07-19T19:26:49.846Z,23.50
2018-07-19T19:29:16.505Z,23.49
2018-07-19T19:31:43.265Z,23.48
2018-07-19T19:34:11.032Z,23.48
2018-07-19T19:36:37.752Z,23.47
2018-07-19T19:39:06.178Z,23.46
2018-07-19T19:41:33.905Z,23.47
2018-07-19T19:44:00.588Z,23.46
2018-07-19T19:46:27.301Z,23.46
2018-07-19T19:48:54.009Z,23.46
2018-07-19T19:51:20.700Z,23.45
2018-07-19T19:53:48.148Z,23.44
2018-07-19T19:56:15.062Z,23.43
2018-07-19T19:58:42.784Z,23.43
2018-07-19T20:01:10.496Z,23.45
2018-07-19T20:03:38.154Z,23.48
2018-07-19T20:06:05.761Z,23.44
2018-07-19T20:08:32.440Z,23.43
2018-07-19T20:10:59.089Z,23.41
2018-07-19T20:13:25.787Z,23.41
2018-07-19T20:15:53.328Z,23.40
2018-07-19T20:18:20.893Z,23.39
2018-07-19T20:20:48.544Z,23.38
2018-07-19T20:23:16.188Z,23.39
2018-07-19T20:25:42.831Z,23.36
2018-07-19T20:28:11.958Z,23.38
2018-07-19T20:30:41.060Z,23.37
2018-07-19T20:33:07.841Z,23.38
2018-07-19T20:35:34.504Z,23.36
2018-07-19T20:38:02.087Z,23.38
2018-07-19T20:40:28.772Z,23.37
2018-07-19T20:42:56.429Z,23.35
2018-07-19T20:45:23.238Z,23.34
2018-07-19T20:47:49.953Z,23.38
2018-07-19T20:50:17.621Z,23.35
2018-07-19T20:52:44.308Z,23.33
2018-07-19T20:55:10.963Z,23.34
2018-07-19T20:57:37.823Z,23.33
2018-07-19T21:00:04.508Z,23.32
2018-07-19T21:02:31.168Z,23.33
2018-07-19T21:04:57.990Z,23.31
2018-07-19T21:07:24.660Z,23.29
2018-07-19T21:09:52.293Z,23.29
2018-07-19T21:12:18.961Z,23.30
2018-07-19T21:14:48.015Z,23.27
2018-07-19T21:17:15.460Z,23.29
2018-07-19T21:19:42.122Z,23.31
2018-07-19T21:22:08.785Z,23.28
2018-07-19T21:24:36.340Z,23.26
2018-07-19T21:27:04.005Z,23.25
2018-07-19T21:29:38.860Z,23.27
2018-07-19T21:32:07.141Z,23.19
2018-07-19T21:34:34.230Z,23.23
2018-07-19T21:37:00.950Z,23.23
2018-07-19T21:39:27.629Z,23.24
2018-07-19T21:41:55.144Z,23.23
2018-07-19T21:44:21.824Z,23.18
2018-07-19T21:46:49.108Z,23.17
2018-07-19T21:49:15.785Z,23.17
2018-07-19T21:51:42.602Z,23.13
2018-07-19T21:54:09.320Z,23.16
2018-07-19T21:56:35.960Z,23.09
2018-07-19T21:59:02.661Z,23.10
2018-07-19T22:01:30.212Z,23.07
2018-07-19T22:03:56.885Z,22.85
2018-07-19T22:06:24.340Z,22.72
2018-07-19T22:08:52.038Z,22.83
2018-07-19T22:11:19.641Z,22.84
2018-07-19T22:13:48.669Z,22.88
2018-07-19T22:16:18.944Z,22.89
2018-07-19T22:18:45.615Z,22.93
2018-07-19T22:21:12.264Z,22.91
2018-07-19T22:23:40.882Z,22.93
2018-07-19T22:26:07.598Z,22.96
2018-07-19T22:28:35.169Z,22.92
2018-07-19T22:31:02.765Z,22.87
2018-07-19T22:33:29.424Z,22.88
2018-07-19T22:35:57.116Z,22.90
2018-07-19T22:38:24.721Z,22.89
2018-07-19T22:40:52.292Z,22.93
2018-07-19T22:43:18.960Z,22.93
2018-07-19T22:45:45.604Z,22.91
2018-07-19T22:48:12.304Z,22.90
2018-07-19T22:50:41.064Z,22.94
2018-07-19T22:53:08.745Z,22.87
2018-07-19T22:55:36.388Z,22.84
2018-07-19T22:58:03.044Z,22.90
2018-07-19T23:00:30.910Z,22.90
2018-07-19T23:02:57.677Z,22.83
2018-07-19T23:05:25.296Z,22.85
2018-07-19T23:07:52.776Z,22.81
2018-07-19T23:10:20.378Z,22.79
2018-07-19T23:12:48.418Z,22.86
2018-07-19T23:15:15.092Z,22.87
2018-07-19T23:17:41.943Z,22.84
2018-07-19T23:20:10.196Z,22.90
2018-07-19T23:22:37.793Z,22.91
2018-07-19T23:25:04.447Z,22.84
2018-07-19T23:27:32.058Z,22.86
2018-07-19T23:29:58.757Z,22.79
2018-07-19T23:32:26.456Z,22.82
2018-07-19T23:34:53.243Z,22.83
2018-07-19T23:37:25.596Z,22.77
2018-07-19T23:39:57.920Z,22.77
2018-07-19T23:42:35.616Z,22.82
2018-07-19T23:45:08.340Z,22.78
2018-07-19T23:47:37.041Z,22.87
2018-07-19T23:50:03.681Z,22.83
2018-07-19T23:52:30.382Z,22.88
2018-07-19T23:54:57.048Z,22.91
2018-07-19T23:57:23.692Z,22.90
2018-07-19T23:59:50.380Z,22.95
